sensor_id;sensor_type;location;lat;lon;timestamp;temperature;humidity
3134;DHT22;1577;49.912;10.924;2023-02-01T14:32:50;2.60;99.90
3134;DHT22;1577;49.912;10.924;2023-02-01T14:35:26;6.60;99.90
3134;DHT22;1577;49.912;10.924;2023-02-01T14:37:58;6.50;99.90
3134;DHT22;1577;49.912;10.924;2023-02-01T14:40:27;6.50;99.90
3134;DHT22;1577;49.912;10.924;2023-02-01T14:42:54;6.50;99.90
3134;DHT22;1577;49.912;10.924;2023-02-01T14:55:43;6.40;99.90
3134;DHT22;1577;49.912;10.924;2023-02-01T15:01:16;6.40;99.90
3134;DHT22;1577;49.912;10.924;2023-02-01T15:03:47;6.40;99.90
3134;DHT22;1577;49.912;10.924;2023-02-01T15:09:02;6.40;99.90
3134;DHT22;1577;49.912;10.924;2023-02-01T15:11:29;6.40;99.90
3134;DHT22;1577;49.912;10.924;2023-02-01T15:13:55;6.40;99.90
3134;DHT22;1577;49.912;10.924;2023-02-01T15:16:24;6.40;99.90
3134;DHT22;1577;49.912;10.924;2023-02-01T15:19:05;6.40;99.90
3134;DHT22;1577;49.912;10.924;2023-02-01T15:21:31;6.30;99.90
3134;DHT22;1577;49.912;10.924;2023-02-01T15:24:12;6.30;99.90
3134;DHT22;1577;49.912;10.924;2023-02-01T15:26:38;6.30;99.90
3134;DHT22;1577;49.912;10.924;2023-02-01T15:29:04;6.30;99.90
3134;DHT22;1577;49.912;10.924;2023-02-01T15:31:41;6.30;99.90
3134;DHT22;1577;49.912;10.924;2023-02-01T15:34:08;6.30;99.90
3134;DHT22;1577;49.912;10.924;2023-02-01T15:36:34;6.30;99.90
3134;DHT22;1577;49.912;10.924;2023-02-01T15:41:50;6.30;99.90
3134;DHT22;1577;49.912;10.924;2023-02-01T15:44:26;6.30;99.90
3134;DHT22;1577;49.912;10.924;2023-02-01T15:46:53;6.30;99.90
3134;DHT22;1577;49.912;10.924;2023-02-01T15:49:36;6.30;99.90
3134;DHT22;1577;49.912;10.924;2023-02-01T15:52:03;6.30;99.90
3134;DHT22;1577;49.912;10.924;2023-02-01T15:54:58;6.30;99.90
3134;DHT22;1577;49.912;10.924;2023-02-01T15:57:30;6.20;99.90
3134;DHT22;1577;49.912;10.924;2023-02-01T16:00:03;6.30;99.90
3134;DHT22;1577;49.912;10.924;2023-02-01T16:02:36;6.30;99.90
3134;DHT22;1577;49.912;10.924;2023-02-01T16:05:05;6.30;99.90
3134;DHT22;1577;49.912;10.924;2023-02-01T16:07:58;6.30;99.90
3134;DHT22;1577;49.912;10.924;2023-02-01T16:10:29;6.20;99.90
3134;DHT22;1577;49.912;10.924;2023-02-01T16:12:55;6.20;99.90
3134;DHT22;1577;49.912;10.924;2023-02-01T16:15:26;6.20;99.90
3134;DHT22;1577;49.912;10.924;2023-02-01T16:17:51;6.20;99.90
3134;DHT22;1577;49.912;10.924;2023-02-01T16:20:17;6.30;99.90
3134;DHT22;1577;49.912;10.924;2023-02-01T16:22:43;6.30;99.90
3134;DHT22;1577;49.912;10.924;2023-02-01T16:25:08;6.30;99.90
3134;DHT22;1577;49.912;10.924;2023-02-01T16:27:34;6.20;99.90
3134;DHT22;1577;49.912;10.924;2023-02-01T16:29:59;6.30;99.90
3134;DHT22;1577;49.912;10.924;2023-02-01T16:32:25;6.30;99.90
3134;DHT22;1577;49.912;10.924;2023-02-01T16:34:52;6.30;99.90
3134;DHT22;1577;49.912;10.924;2023-02-01T16:37:22;6.30;99.90
3134;DHT22;1577;49.912;10.924;2023-02-01T16:39:48;6.30;99.90
3134;DHT22;1577;49.912;10.924;2023-02-01T16:42:15;6.20;99.90
3134;DHT22;1577;49.912;10.924;2023-02-01T16:44:41;6.20;99.90
3134;DHT22;1577;49.912;10.924;2023-02-01T16:47:18;6.20;99.90
3134;DHT22;1577;49.912;10.924;2023-02-01T16:49:45;6.20;99.90
3134;DHT22;1577;49.912;10.924;2023-02-01T16:52:22;6.20;99.90
3134;DHT22;1577;49.912;10.924;2023-02-01T16:54:48;6.20;99.90
3134;DHT22;1577;49.912;10.924;2023-02-01T16:57:16;6.20;99.90
3134;DHT22;1577;49.912;10.924;2023-02-01T16:59:43;6.20;99.90
3134;DHT22;1577;49.912;10.924;2023-02-01T17:02:17;6.20;99.90
3134;DHT22;1577;49.912;10.924;2023-02-01T17:04:44;6.10;99.90
3134;DHT22;1577;49.912;10.924;2023-02-01T17:07:17;6.10;99.90
3134;DHT22;1577;49.912;10.924;2023-02-01T17:09:44;6.10;99.90
3134;DHT22;1577;49.912;10.924;2023-02-01T17:12:28;6.10;99.90
3134;DHT22;1577;49.912;10.924;2023-02-01T17:14:58;6.10;99.90
3134;DHT22;1577;49.912;10.924;2023-02-01T17:17:36;6.10;99.90
3134;DHT22;1577;49.912;10.924;2023-02-01T17:20:03;6.10;99.90
3134;DHT22;1577;49.912;10.924;2023-02-01T17:22:29;6.10;99.90
3134;DHT22;1577;49.912;10.924;2023-02-01T17:24:54;6.10;99.90
3134;DHT22;1577;49.912;10.924;2023-02-01T17:27:20;6.10;99.90
3134;DHT22;1577;49.912;10.924;2023-02-01T17:29:46;6.10;99.90
3134;DHT22;1577;49.912;10.924;2023-02-01T17:32:19;6.10;99.90
3134;DHT22;1577;49.912;10.924;2023-02-01T17:34:46;6.10;99.90
3134;DHT22;1577;49.912;10.924;2023-02-01T17:37:33;6.10;99.90
3134;DHT22;1577;49.912;10.924;2023-02-01T17:39:59;6.10;99.90
3134;DHT22;1577;49.912;10.924;2023-02-01T17:42:26;6.10;99.90
3134;DHT22;1577;49.912;10.924;2023-02-01T17:45:01;6.00;99.90
3134;DHT22;1577;49.912;10.924;2023-02-01T17:47:35;6.00;99.90
3134;DHT22;1577;49.912;10.924;2023-02-01T17:50:01;5.90;99.90
3134;DHT22;1577;49.912;10.924;2023-02-01T17:52:27;5.80;99.90
3134;DHT22;1577;49.912;10.924;2023-02-01T17:54:54;5.80;99.90
3134;DHT22;1577;49.912;10.924;2023-02-01T17:57:19;5.80;99.90
3134;DHT22;1577;49.912;10.924;2023-02-01T17:59:45;5.80;99.90
3134;DHT22;1577;49.912;10.924;2023-02-01T18:02:23;5.80;99.90
3134;DHT22;1577;49.912;10.924;2023-02-01T18:04:51;5.80;99.90
3134;DHT22;1577;49.912;10.924;2023-02-01T18:07:17;5.80;99.90
3134;DHT22;1577;49.912;10.924;2023-02-01T18:09:46;5.90;99.90
3134;DHT22;1577;49.912;10.924;2023-02-01T18:12:19;5.90;99.90
3134;DHT22;1577;49.912;10.924;2023-02-01T18:14:46;5.90;99.90
3134;DHT22;1577;49.912;10.924;2023-02-01T18:17:12;5.90;99.90
3134;DHT22;1577;49.912;10.924;2023-02-01T18:19:37;5.90;99.90
3134;DHT22;1577;49.912;10.924;2023-02-01T18:22:03;5.90;99.90
3134;DHT22;1577;49.912;10.924;2023-02-01T18:24:30;5.90;99.90
3134;DHT22;1577;49.912;10.924;2023-02-01T18:26:58;6.00;99.90
3134;DHT22;1577;49.912;10.924;2023-02-01T18:29:24;6.00;99.90
3134;DHT22;1577;49.912;10.924;2023-02-01T18:31:49;6.00;99.90
3134;DHT22;1577;49.912;10.924;2023-02-01T18:34:15;6.00;99.90
3134;DHT22;1577;49.912;10.924;2023-02-01T18:36:48;6.00;99.90
3134;DHT22;1577;49.912;10.924;2023-02-01T18:39:13;6.00;99.90
3134;DHT22;1577;49.912;10.924;2023-02-01T18:41:39;6.00;99.90
3134;DHT22;1577;49.912;10.924;2023-02-01T18:44:13;6.00;99.90
3134;DHT22;1577;49.912;10.924;2023-02-01T18:46:42;6.00;99.90
3134;DHT22;1577;49.912;10.924;2023-02-01T18:49:08;5.90;99.90
3134;DHT22;1577;49.912;10.924;2023-02-01T18:51:36;5.80;99.90
3134;DHT22;1577;49.912;10.924;2023-02-01T18:54:02;5.70;99.90
3134;DHT22;1577;49.912;10.924;2023-02-01T18:56:28;5.70;99.90
3134;DHT22;1577;49.912;10.924;2023-02-01T18:58:54;5.70;99.90
3134;DHT22;1577;49.912;10.924;2023-02-01T19:01:20;5.60;99.90
3134;DHT22;1577;49.912;10.924;2023-02-01T19:03:49;5.70;99.90
3134;DHT22;1577;49.912;10.924;2023-02-01T19:06:15;5.70;99.90
3134;DHT22;1577;49.912;10.924;2023-02-01T19:08:44;5.70;99.90
3134;DHT22;1577;49.912;10.924;2023-02-01T19:11:10;5.70;99.90
3134;DHT22;1577;49.912;10.924;2023-02-01T19:13:37;5.70;99.90
3134;DHT22;1577;49.912;10.924;2023-02-01T19:16:08;5.70;99.90
3134;DHT22;1577;49.912;10.924;2023-02-01T19:18:34;5.60;99.90
3134;DHT22;1577;49.912;10.924;2023-02-01T19:21:05;5.60;99.90
3134;DHT22;1577;49.912;10.924;2023-02-01T19:23:31;5.50;99.90
3134;DHT22;1577;49.912;10.924;2023-02-01T19:25:57;5.50;99.90
3134;DHT22;1577;49.912;10.924;2023-02-01T19:28:23;5.50;99.90
3134;DHT22;1577;49.912;10.924;2023-02-01T19:30:48;5.50;99.90
3134;DHT22;1577;49.912;10.924;2023-02-01T19:33:15;5.50;99.90
3134;DHT22;1577;49.912;10.924;2023-02-01T19:35:41;5.50;99.90
3134;DHT22;1577;49.912;10.924;2023-02-01T19:38:06;5.50;99.90
3134;DHT22;1577;49.912;10.924;2023-02-01T19:40:32;5.50;99.90
3134;DHT22;1577;49.912;10.924;2023-02-01T19:42:58;5.60;99.90
3134;DHT22;1577;49.912;10.924;2023-02-01T19:45:23;5.60;99.90
3134;DHT22;1577;49.912;10.924;2023-02-01T19:47:49;5.60;99.90
3134;DHT22;1577;49.912;10.924;2023-02-01T19:50:19;5.50;99.90
3134;DHT22;1577;49.912;10.924;2023-02-01T19:52:46;5.40;99.90
3134;DHT22;1577;49.912;10.924;2023-02-01T19:55:12;5.40;99.90
3134;DHT22;1577;49.912;10.924;2023-02-01T19:57:38;5.40;99.90
3134;DHT22;1577;49.912;10.924;2023-02-01T20:00:05;5.40;99.90
3134;DHT22;1577;49.912;10.924;2023-02-01T20:02:32;5.40;99.90
3134;DHT22;1577;49.912;10.924;2023-02-01T20:04:58;5.40;99.90
3134;DHT22;1577;49.912;10.924;2023-02-01T20:07:24;5.50;99.90
3134;DHT22;1577;49.912;10.924;2023-02-01T20:09:49;5.50;99.90
3134;DHT22;1577;49.912;10.924;2023-02-01T20:12:15;5.50;99.90
3134;DHT22;1577;49.912;10.924;2023-02-01T20:14:41;5.60;99.90
3134;DHT22;1577;49.912;10.924;2023-02-01T20:17:07;5.60;99.90
3134;DHT22;1577;49.912;10.924;2023-02-01T20:19:33;5.70;99.90
3134;DHT22;1577;49.912;10.924;2023-02-01T20:21:59;5.70;99.90
3134;DHT22;1577;49.912;10.924;2023-02-01T20:24:25;5.70;99.90
3134;DHT22;1577;49.912;10.924;2023-02-01T20:26:51;5.70;99.90
3134;DHT22;1577;49.912;10.924;2023-02-01T20:29:17;5.80;99.90
3134;DHT22;1577;49.912;10.924;2023-02-01T20:31:44;5.80;99.90
3134;DHT22;1577;49.912;10.924;2023-02-01T20:34:10;5.80;99.90
3134;DHT22;1577;49.912;10.924;2023-02-01T20:36:36;5.80;99.90
3134;DHT22;1577;49.912;10.924;2023-02-01T20:39:02;5.80;99.90
3134;DHT22;1577;49.912;10.924;2023-02-01T20:41:28;5.80;99.90
3134;DHT22;1577;49.912;10.924;2023-02-01T20:43:54;5.80;99.90
3134;DHT22;1577;49.912;10.924;2023-02-01T20:46:20;5.80;99.90
3134;DHT22;1577;49.912;10.924;2023-02-01T20:48:47;5.90;99.90
3134;DHT22;1577;49.912;10.924;2023-02-01T20:51:14;5.80;99.90
3134;DHT22;1577;49.912;10.924;2023-02-01T20:53:40;5.90;99.90
3134;DHT22;1577;49.912;10.924;2023-02-01T20:56:07;5.90;99.90
3134;DHT22;1577;49.912;10.924;2023-02-01T20:58:33;5.90;99.90
3134;DHT22;1577;49.912;10.924;2023-02-01T21:00:59;5.90;99.90
3134;DHT22;1577;49.912;10.924;2023-02-01T21:03:24;5.80;99.90
3134;DHT22;1577;49.912;10.924;2023-02-01T21:05:53;5.80;99.90
3134;DHT22;1577;49.912;10.924;2023-02-01T21:08:20;5.90;99.90
3134;DHT22;1577;49.912;10.924;2023-02-01T21:11:04;5.80;99.90
3134;DHT22;1577;49.912;10.924;2023-02-01T21:13:31;5.80;99.90
3134;DHT22;1577;49.912;10.924;2023-02-01T21:16:00;5.80;99.90
3134;DHT22;1577;49.912;10.924;2023-02-01T21:18:26;5.80;99.90
3134;DHT22;1577;49.912;10.924;2023-02-01T21:20:52;5.80;99.90
3134;DHT22;1577;49.912;10.924;2023-02-01T21:23:18;5.80;99.90
3134;DHT22;1577;49.912;10.924;2023-02-01T21:25:46;5.80;99.90
3134;DHT22;1577;49.912;10.924;2023-02-01T21:28:12;5.70;99.90
3134;DHT22;1577;49.912;10.924;2023-02-01T21:30:38;5.80;99.90
3134;DHT22;1577;49.912;10.924;2023-02-01T21:33:04;5.70;99.90
3134;DHT22;1577;49.912;10.924;2023-02-01T21:35:30;5.80;99.90
3134;DHT22;1577;49.912;10.924;2023-02-01T21:37:56;5.80;99.90
3134;DHT22;1577;49.912;10.924;2023-02-01T21:40:22;5.80;99.90
3134;DHT22;1577;49.912;10.924;2023-02-01T21:42:48;5.80;99.90
3134;DHT22;1577;49.912;10.924;2023-02-01T21:45:15;5.80;99.90
3134;DHT22;1577;49.912;10.924;2023-02-01T21:47:41;5.80;99.90
3134;DHT22;1577;49.912;10.924;2023-02-01T21:50:16;5.80;99.90
3134;DHT22;1577;49.912;10.924;2023-02-01T21:52:42;5.70;99.90
3134;DHT22;1577;49.912;10.924;2023-02-01T21:55:08;5.70;99.90
3134;DHT22;1577;49.912;10.924;2023-02-01T21:57:34;5.70;99.90
3134;DHT22;1577;49.912;10.924;2023-02-01T21:59:59;5.60;99.90
3134;DHT22;1577;49.912;10.924;2023-02-01T22:02:26;5.60;99.90
3134;DHT22;1577;49.912;10.924;2023-02-01T22:04:51;5.50;99.90
3134;DHT22;1577;49.912;10.924;2023-02-01T22:07:17;5.50;99.90
3134;DHT22;1577;49.912;10.924;2023-02-01T22:09:43;5.50;99.90
3134;DHT22;1577;49.912;10.924;2023-02-01T22:12:11;5.50;99.90
3134;DHT22;1577;49.912;10.924;2023-02-01T22:14:37;5.50;99.90
3134;DHT22;1577;49.912;10.924;2023-02-01T22:17:03;5.50;99.90
3134;DHT22;1577;49.912;10.924;2023-02-01T22:19:28;5.50;99.90
3134;DHT22;1577;49.912;10.924;2023-02-01T22:21:54;5.50;99.90
3134;DHT22;1577;49.912;10.924;2023-02-01T22:24:20;5.40;99.90
3134;DHT22;1577;49.912;10.924;2023-02-01T22:26:46;5.40;99.90
3134;DHT22;1577;49.912;10.924;2023-02-01T22:29:12;5.30;99.90
3134;DHT22;1577;49.912;10.924;2023-02-01T22:31:40;5.10;99.90
3134;DHT22;1577;49.912;10.924;2023-02-01T22:34:05;4.80;99.90
3134;DHT22;1577;49.912;10.924;2023-02-01T22:36:31;4.60;99.90
3134;DHT22;1577;49.912;10.924;2023-02-01T22:38:57;4.40;99.90
3134;DHT22;1577;49.912;10.924;2023-02-01T22:41:23;4.20;99.90
3134;DHT22;1577;49.912;10.924;2023-02-01T22:43:49;4.10;99.90
3134;DHT22;1577;49.912;10.924;2023-02-01T22:46:16;3.90;99.90
3134;DHT22;1577;49.912;10.924;2023-02-01T22:48:44;3.90;99.90
3134;DHT22;1577;49.912;10.924;2023-02-01T22:51:16;3.80;99.90
3134;DHT22;1577;49.912;10.924;2023-02-01T22:53:42;3.80;99.90
3134;DHT22;1577;49.912;10.924;2023-02-01T22:56:10;3.80;99.90
3134;DHT22;1577;49.912;10.924;2023-02-01T22:58:35;3.80;99.90
3134;DHT22;1577;49.912;10.924;2023-02-01T23:01:12;3.70;99.90
3134;DHT22;1577;49.912;10.924;2023-02-01T23:03:40;3.70;99.90
3134;DHT22;1577;49.912;10.924;2023-02-01T23:06:07;3.70;99.90
3134;DHT22;1577;49.912;10.924;2023-02-01T23:08:33;3.70;99.90
3134;DHT22;1577;49.912;10.924;2023-02-01T23:11:07;3.60;99.90
3134;DHT22;1577;49.912;10.924;2023-02-01T23:13:34;3.60;99.90
3134;DHT22;1577;49.912;10.924;2023-02-01T23:16:05;3.60;99.90
3134;DHT22;1577;49.912;10.924;2023-02-01T23:18:31;3.60;99.90
3134;DHT22;1577;49.912;10.924;2023-02-01T23:21:01;3.60;99.90
3134;DHT22;1577;49.912;10.924;2023-02-01T23:23:27;3.60;99.90
3134;DHT22;1577;49.912;10.924;2023-02-01T23:25:52;3.60;99.90
3134;DHT22;1577;49.912;10.924;2023-02-01T23:28:18;3.60;99.90
3134;DHT22;1577;49.912;10.924;2023-02-01T23:30:44;3.60;99.90
3134;DHT22;1577;49.912;10.924;2023-02-01T23:33:09;3.60;99.90
3134;DHT22;1577;49.912;10.924;2023-02-01T23:35:35;3.60;99.90
3134;DHT22;1577;49.912;10.924;2023-02-01T23:38:01;3.60;99.90
3134;DHT22;1577;49.912;10.924;2023-02-01T23:40:26;3.60;99.90
3134;DHT22;1577;49.912;10.924;2023-02-01T23:42:52;3.60;99.90
3134;DHT22;1577;49.912;10.924;2023-02-01T23:45:36;3.60;99.90
3134;DHT22;1577;49.912;10.924;2023-02-01T23:48:02;3.50;99.90
3134;DHT22;1577;49.912;10.924;2023-02-01T23:50:27;3.50;99.90
3134;DHT22;1577;49.912;10.924;2023-02-01T23:52:53;3.40;99.90
3134;DHT22;1577;49.912;10.924;2023-02-01T23:55:20;3.40;99.90
3134;DHT22;1577;49.912;10.924;2023-02-01T23:57:46;3.30;99.90
